sensor_id;sensor_type;location;lat;lon;timestamp;temperature;humidity
26947;DHT22;14501;52.282;10.560;2023-10-31T00:01:13;11.70;99.90
26947;DHT22;14501;52.282;10.560;2023-10-31T00:03:39;11.50;99.90
26947;DHT22;14501;52.282;10.560;2023-10-31T00:06:06;11.50;99.90
26947;DHT22;14501;52.282;10.560;2023-10-31T00:08:31;11.50;99.90
26947;DHT22;14501;52.282;10.560;2023-10-31T00:10:57;12.00;99.90
26947;DHT22;14501;52.282;10.560;2023-10-31T00:13:23;11.60;99.90
26947;DHT22;14501;52.282;10.560;2023-10-31T00:15:48;11.60;99.90
26947;DHT22;14501;52.282;10.560;2023-10-31T00:20:40;11.60;99.90
26947;DHT22;14501;52.282;10.560;2023-10-31T00:23:06;11.50;99.90
26947;DHT22;14501;52.282;10.560;2023-10-31T00:25:31;11.50;99.90
26947;DHT22;14501;52.282;10.560;2023-10-31T00:27:57;11.50;99.90
26947;DHT22;14501;52.282;10.560;2023-10-31T00:30:22;11.50;99.90
26947;DHT22;14501;52.282;10.560;2023-10-31T00:32:48;11.60;99.90
26947;DHT22;14501;52.282;10.560;2023-10-31T00:35:13;11.50;99.90
26947;DHT22;14501;52.282;10.560;2023-10-31T00:37:39;12.00;99.90
26947;DHT22;14501;52.282;10.560;2023-10-31T00:40:06;11.10;99.90
26947;DHT22;14501;52.282;10.560;2023-10-31T00:42:32;11.50;99.90
26947;DHT22;14501;52.282;10.560;2023-10-31T00:44:59;12.40;99.90
26947;DHT22;14501;52.282;10.560;2023-10-31T00:47:24;12.00;99.90
26947;DHT22;14501;52.282;10.560;2023-10-31T00:49:50;12.20;99.90
26947;DHT22;14501;52.282;10.560;2023-10-31T00:52:15;11.60;99.90
26947;DHT22;14501;52.282;10.560;2023-10-31T00:57:07;11.60;99.90
26947;DHT22;14501;52.282;10.560;2023-10-31T00:59:33;11.50;99.90
26947;DHT22;14501;52.282;10.560;2023-10-31T01:01:58;11.60;99.90
26947;DHT22;14501;52.282;10.560;2023-10-31T01:04:24;11.50;99.90
26947;DHT22;14501;52.282;10.560;2023-10-31T01:06:51;11.50;99.90
26947;DHT22;14501;52.282;10.560;2023-10-31T01:09:16;11.10;99.90
26947;DHT22;14501;52.282;10.560;2023-10-31T01:11:42;11.50;99.90
26947;DHT22;14501;52.282;10.560;2023-10-31T01:14:08;11.50;99.90
26947;DHT22;14501;52.282;10.560;2023-10-31T01:16:33;11.50;99.90
26947;DHT22;14501;52.282;10.560;2023-10-31T01:18:59;12.10;99.90
26947;DHT22;14501;52.282;10.560;2023-10-31T01:21:24;11.70;99.90
26947;DHT22;14501;52.282;10.560;2023-10-31T01:23:50;11.90;99.90
26947;DHT22;14501;52.282;10.560;2023-10-31T01:26:15;11.50;99.90
26947;DHT22;14501;52.282;10.560;2023-10-31T01:28:41;11.50;99.90
26947;DHT22;14501;52.282;10.560;2023-10-31T01:31:06;11.70;99.90
26947;DHT22;14501;52.282;10.560;2023-10-31T01:33:33;11.50;99.90
26947;DHT22;14501;52.282;10.560;2023-10-31T01:35:59;11.50;99.90
26947;DHT22;14501;52.282;10.560;2023-10-31T01:38:25;11.50;99.90
26947;DHT22;14501;52.282;10.560;2023-10-31T01:40:50;12.00;99.90
26947;DHT22;14501;52.282;10.560;2023-10-31T01:43:39;11.50;99.90
26947;DHT22;14501;52.282;10.560;2023-10-31T01:46:05;11.50;99.90
26947;DHT22;14501;52.282;10.560;2023-10-31T01:48:32;11.50;99.90
26947;DHT22;14501;52.282;10.560;2023-10-31T01:50:59;11.50;99.90
26947;DHT22;14501;52.282;10.560;2023-10-31T01:53:26;11.50;99.90
26947;DHT22;14501;52.282;10.560;2023-10-31T01:55:54;11.50;99.90
26947;DHT22;14501;52.282;10.560;2023-10-31T01:58:25;11.50;99.90
26947;DHT22;14501;52.282;10.560;2023-10-31T02:00:51;12.40;99.90
26947;DHT22;14501;52.282;10.560;2023-10-31T02:03:17;11.50;99.90
26947;DHT22;14501;52.282;10.560;2023-10-31T02:05:43;11.50;99.90
26947;DHT22;14501;52.282;10.560;2023-10-31T02:08:08;11.50;99.90
26947;DHT22;14501;52.282;10.560;2023-10-31T02:10:35;11.50;99.90
26947;DHT22;14501;52.282;10.560;2023-10-31T02:13:14;11.50;99.90
26947;DHT22;14501;52.282;10.560;2023-10-31T02:15:40;11.50;99.90
26947;DHT22;14501;52.282;10.560;2023-10-31T02:18:06;11.50;99.90
26947;DHT22;14501;52.282;10.560;2023-10-31T02:20:31;11.50;99.90
26947;DHT22;14501;52.282;10.560;2023-10-31T02:22:57;11.50;99.90
26947;DHT22;14501;52.282;10.560;2023-10-31T02:25:23;11.50;99.90
26947;DHT22;14501;52.282;10.560;2023-10-31T02:27:48;11.50;99.90
26947;DHT22;14501;52.282;10.560;2023-10-31T02:30:14;11.60;99.90
26947;DHT22;14501;52.282;10.560;2023-10-31T02:32:40;11.60;99.90
26947;DHT22;14501;52.282;10.560;2023-10-31T02:35:07;11.60;99.90
26947;DHT22;14501;52.282;10.560;2023-10-31T02:37:33;11.60;99.90
26947;DHT22;14501;52.282;10.560;2023-10-31T02:40:00;11.60;99.90
26947;DHT22;14501;52.282;10.560;2023-10-31T02:42:26;11.60;99.90
26947;DHT22;14501;52.282;10.560;2023-10-31T02:44:52;11.60;99.90
26947;DHT22;14501;52.282;10.560;2023-10-31T02:47:18;11.60;99.90
26947;DHT22;14501;52.282;10.560;2023-10-31T02:49:44;11.60;99.90
26947;DHT22;14501;52.282;10.560;2023-10-31T02:52:10;11.60;99.90
26947;DHT22;14501;52.282;10.560;2023-10-31T02:54:36;11.60;99.90
26947;DHT22;14501;52.282;10.560;2023-10-31T02:57:02;11.60;99.90
26947;DHT22;14501;52.282;10.560;2023-10-31T02:59:27;11.70;99.90
26947;DHT22;14501;52.282;10.560;2023-10-31T03:01:55;11.70;99.90
26947;DHT22;14501;52.282;10.560;2023-10-31T03:04:21;11.70;99.90
26947;DHT22;14501;52.282;10.560;2023-10-31T03:06:47;11.70;99.90
26947;DHT22;14501;52.282;10.560;2023-10-31T03:09:12;11.70;99.90
26947;DHT22;14501;52.282;10.560;2023-10-31T03:11:38;11.70;99.90
26947;DHT22;14501;52.282;10.560;2023-10-31T03:14:04;11.80;99.90
26947;DHT22;14501;52.282;10.560;2023-10-31T03:16:29;11.70;99.90
26947;DHT22;14501;52.282;10.560;2023-10-31T03:18:55;11.70;99.90
26947;DHT22;14501;52.282;10.560;2023-10-31T03:21:21;11.70;99.90
26947;DHT22;14501;52.282;10.560;2023-10-31T03:23:48;11.70;99.90
26947;DHT22;14501;52.282;10.560;2023-10-31T03:26:15;11.70;99.90
26947;DHT22;14501;52.282;10.560;2023-10-31T03:28:42;11.70;99.90
26947;DHT22;14501;52.282;10.560;2023-10-31T03:31:09;11.80;99.90
26947;DHT22;14501;52.282;10.560;2023-10-31T03:33:34;11.80;99.90
26947;DHT22;14501;52.282;10.560;2023-10-31T03:36:00;11.80;99.90
26947;DHT22;14501;52.282;10.560;2023-10-31T03:38:25;11.80;99.90
26947;DHT22;14501;52.282;10.560;2023-10-31T03:40:51;11.80;99.90
26947;DHT22;14501;52.282;10.560;2023-10-31T03:43:17;11.80;99.90
26947;DHT22;14501;52.282;10.560;2023-10-31T03:45:42;12.60;99.90
26947;DHT22;14501;52.282;10.560;2023-10-31T03:48:08;11.80;99.90
26947;DHT22;14501;52.282;10.560;2023-10-31T03:50:34;11.80;99.90
26947;DHT22;14501;52.282;10.560;2023-10-31T03:52:59;11.80;99.90
26947;DHT22;14501;52.282;10.560;2023-10-31T03:55:25;11.80;99.90
26947;DHT22;14501;52.282;10.560;2023-10-31T03:57:50;11.80;99.90
26947;DHT22;14501;52.282;10.560;2023-10-31T04:00:16;11.80;99.90
26947;DHT22;14501;52.282;10.560;2023-10-31T04:02:42;11.80;99.90
26947;DHT22;14501;52.282;10.560;2023-10-31T04:05:08;11.80;99.90
26947;DHT22;14501;52.282;10.560;2023-10-31T04:07:33;11.80;99.90
26947;DHT22;14501;52.282;10.560;2023-10-31T04:09:59;11.20;99.90
26947;DHT22;14501;52.282;10.560;2023-10-31T04:12:25;11.90;99.90
26947;DHT22;14501;52.282;10.560;2023-10-31T04:14:51;11.90;99.90
26947;DHT22;14501;52.282;10.560;2023-10-31T04:17:16;11.90;99.90
26947;DHT22;14501;52.282;10.560;2023-10-31T04:19:42;11.90;99.90
26947;DHT22;14501;52.282;10.560;2023-10-31T04:22:07;11.90;99.90
26947;DHT22;14501;52.282;10.560;2023-10-31T04:24:33;11.90;99.90
26947;DHT22;14501;52.282;10.560;2023-10-31T04:26:59;12.00;99.90
26947;DHT22;14501;52.282;10.560;2023-10-31T04:29:24;11.90;99.90
26947;DHT22;14501;52.282;10.560;2023-10-31T04:31:50;11.80;99.90
26947;DHT22;14501;52.282;10.560;2023-10-31T04:34:16;11.50;99.90
26947;DHT22;14501;52.282;10.560;2023-10-31T04:36:41;11.60;99.90
26947;DHT22;14501;52.282;10.560;2023-10-31T04:39:07;11.50;99.90
26947;DHT22;14501;52.282;10.560;2023-10-31T04:41:32;11.40;99.90
26947;DHT22;14501;52.282;10.560;2023-10-31T04:43:58;11.10;99.90
26947;DHT22;14501;52.282;10.560;2023-10-31T04:46:27;11.20;99.90
26947;DHT22;14501;52.282;10.560;2023-10-31T04:48:52;11.20;99.90
26947;DHT22;14501;52.282;10.560;2023-10-31T04:51:19;11.10;99.90
26947;DHT22;14501;52.282;10.560;2023-10-31T04:53:45;11.10;99.90
26947;DHT22;14501;52.282;10.560;2023-10-31T04:56:14;11.10;99.90
26947;DHT22;14501;52.282;10.560;2023-10-31T04:58:43;11.00;99.90
26947;DHT22;14501;52.282;10.560;2023-10-31T05:01:09;11.00;99.90
26947;DHT22;14501;52.282;10.560;2023-10-31T05:03:36;11.00;99.90
26947;DHT22;14501;52.282;10.560;2023-10-31T05:06:02;10.90;99.90
26947;DHT22;14501;52.282;10.560;2023-10-31T05:08:29;10.90;99.90
26947;DHT22;14501;52.282;10.560;2023-10-31T05:10:54;10.90;99.90
26947;DHT22;14501;52.282;10.560;2023-10-31T05:13:20;10.90;99.90
26947;DHT22;14501;52.282;10.560;2023-10-31T05:15:46;10.80;99.90
26947;DHT22;14501;52.282;10.560;2023-10-31T05:18:11;10.80;99.90
26947;DHT22;14501;52.282;10.560;2023-10-31T05:20:37;10.80;99.90
26947;DHT22;14501;52.282;10.560;2023-10-31T05:23:02;10.80;99.90
26947;DHT22;14501;52.282;10.560;2023-10-31T05:25:28;10.80;99.90
26947;DHT22;14501;52.282;10.560;2023-10-31T05:27:54;10.80;99.90
26947;DHT22;14501;52.282;10.560;2023-10-31T05:30:19;10.80;99.90
26947;DHT22;14501;52.282;10.560;2023-10-31T05:32:45;10.70;99.90
26947;DHT22;14501;52.282;10.560;2023-10-31T05:35:11;10.70;99.90
26947;DHT22;14501;52.282;10.560;2023-10-31T05:37:36;10.70;99.90
26947;DHT22;14501;52.282;10.560;2023-10-31T05:40:02;10.70;99.90
26947;DHT22;14501;52.282;10.560;2023-10-31T05:42:28;10.70;99.90
26947;DHT22;14501;52.282;10.560;2023-10-31T05:44:54;10.80;99.90
26947;DHT22;14501;52.282;10.560;2023-10-31T05:47:20;10.70;99.90
26947;DHT22;14501;52.282;10.560;2023-10-31T05:49:46;10.80;99.90
26947;DHT22;14501;52.282;10.560;2023-10-31T05:52:12;10.80;99.90
26947;DHT22;14501;52.282;10.560;2023-10-31T05:54:37;10.70;99.90
26947;DHT22;14501;52.282;10.560;2023-10-31T05:57:03;10.80;99.90
26947;DHT22;14501;52.282;10.560;2023-10-31T05:59:29;10.80;99.90
26947;DHT22;14501;52.282;10.560;2023-10-31T06:01:55;10.80;99.90
26947;DHT22;14501;52.282;10.560;2023-10-31T06:04:20;10.80;99.90
26947;DHT22;14501;52.282;10.560;2023-10-31T06:06:46;10.80;99.90
26947;DHT22;14501;52.282;10.560;2023-10-31T06:09:11;10.80;99.90
26947;DHT22;14501;52.282;10.560;2023-10-31T06:11:41;10.80;99.90
26947;DHT22;14501;52.282;10.560;2023-10-31T06:14:08;10.90;99.90
26947;DHT22;14501;52.282;10.560;2023-10-31T06:16:42;10.80;99.90
26947;DHT22;14501;52.282;10.560;2023-10-31T06:19:08;10.80;99.90
26947;DHT22;14501;52.282;10.560;2023-10-31T06:21:34;10.80;99.90
26947;DHT22;14501;52.282;10.560;2023-10-31T06:24:00;10.90;99.90
26947;DHT22;14501;52.282;10.560;2023-10-31T06:26:25;10.80;99.90
26947;DHT22;14501;52.282;10.560;2023-10-31T06:28:51;10.80;99.90
26947;DHT22;14501;52.282;10.560;2023-10-31T06:31:17;10.70;99.90
26947;DHT22;14501;52.282;10.560;2023-10-31T06:33:42;10.70;99.90
26947;DHT22;14501;52.282;10.560;2023-10-31T06:36:08;10.60;99.90
26947;DHT22;14501;52.282;10.560;2023-10-31T06:38:34;10.50;99.90
26947;DHT22;14501;52.282;10.560;2023-10-31T06:40:59;10.50;99.90
26947;DHT22;14501;52.282;10.560;2023-10-31T06:43:25;10.50;99.90
26947;DHT22;14501;52.282;10.560;2023-10-31T06:45:51;10.40;99.90
26947;DHT22;14501;52.282;10.560;2023-10-31T06:48:16;10.40;99.90
26947;DHT22;14501;52.282;10.560;2023-10-31T06:50:42;10.40;99.90
26947;DHT22;14501;52.282;10.560;2023-10-31T06:53:08;10.30;99.90
26947;DHT22;14501;52.282;10.560;2023-10-31T06:55:33;10.30;99.90
26947;DHT22;14501;52.282;10.560;2023-10-31T06:57:59;10.30;99.90
26947;DHT22;14501;52.282;10.560;2023-10-31T07:00:25;10.30;99.90
26947;DHT22;14501;52.282;10.560;2023-10-31T07:02:50;10.30;99.90
26947;DHT22;14501;52.282;10.560;2023-10-31T07:05:16;10.40;99.90
26947;DHT22;14501;52.282;10.560;2023-10-31T07:07:42;10.70;99.90
26947;DHT22;14501;52.282;10.560;2023-10-31T07:10:07;10.90;99.90
26947;DHT22;14501;52.282;10.560;2023-10-31T07:12:33;11.10;99.90
26947;DHT22;14501;52.282;10.560;2023-10-31T07:14:59;11.20;99.90
26947;DHT22;14501;52.282;10.560;2023-10-31T07:17:28;11.30;99.90
26947;DHT22;14501;52.282;10.560;2023-10-31T07:19:53;11.20;99.90
26947;DHT22;14501;52.282;10.560;2023-10-31T07:22:19;11.20;99.90
26947;DHT22;14501;52.282;10.560;2023-10-31T07:24:45;11.10;99.90
26947;DHT22;14501;52.282;10.560;2023-10-31T07:27:10;11.00;99.90
26947;DHT22;14501;52.282;10.560;2023-10-31T07:29:39;11.00;99.90
26947;DHT22;14501;52.282;10.560;2023-10-31T07:32:06;11.00;99.90
26947;DHT22;14501;52.282;10.560;2023-10-31T07:34:31;10.90;99.90
26947;DHT22;14501;52.282;10.560;2023-10-31T07:36:57;10.90;99.90
26947;DHT22;14501;52.282;10.560;2023-10-31T07:39:22;10.90;99.90
26947;DHT22;14501;52.282;10.560;2023-10-31T07:41:48;10.90;99.90
26947;DHT22;14501;52.282;10.560;2023-10-31T07:44:14;10.90;99.90
26947;DHT22;14501;52.282;10.560;2023-10-31T07:46:39;10.90;99.90
26947;DHT22;14501;52.282;10.560;2023-10-31T07:49:05;11.00;99.90
26947;DHT22;14501;52.282;10.560;2023-10-31T07:51:31;11.10;99.90
26947;DHT22;14501;52.282;10.560;2023-10-31T07:53:57;11.10;99.90
26947;DHT22;14501;52.282;10.560;2023-10-31T07:56:24;11.20;99.90
26947;DHT22;14501;52.282;10.560;2023-10-31T07:58:51;11.20;99.90
26947;DHT22;14501;52.282;10.560;2023-10-31T08:01:20;11.20;99.90
26947;DHT22;14501;52.282;10.560;2023-10-31T08:03:48;11.30;99.90
26947;DHT22;14501;52.282;10.560;2023-10-31T08:06:14;11.40;99.90
26947;DHT22;14501;52.282;10.560;2023-10-31T08:08:40;11.40;99.90
26947;DHT22;14501;52.282;10.560;2023-10-31T08:11:09;11.30;99.90
26947;DHT22;14501;52.282;10.560;2023-10-31T08:13:39;11.60;99.90
26947;DHT22;14501;52.282;10.560;2023-10-31T08:16:07;11.60;99.90
26947;DHT22;14501;52.282;10.560;2023-10-31T08:18:33;11.60;99.90
26947;DHT22;14501;52.282;10.560;2023-10-31T08:20:59;11.50;99.90
26947;DHT22;14501;52.282;10.560;2023-10-31T08:23:25;11.20;99.90
26947;DHT22;14501;52.282;10.560;2023-10-31T08:25:51;11.70;99.90
26947;DHT22;14501;52.282;10.560;2023-10-31T08:28:17;11.80;99.90
26947;DHT22;14501;52.282;10.560;2023-10-31T08:33:08;11.70;99.90
26947;DHT22;14501;52.282;10.560;2023-10-31T08:35:34;11.80;99.90
26947;DHT22;14501;52.282;10.560;2023-10-31T08:37:59;11.60;99.90
26947;DHT22;14501;52.282;10.560;2023-10-31T08:40:25;11.70;99.90
26947;DHT22;14501;52.282;10.560;2023-10-31T08:42:51;11.70;99.90
26947;DHT22;14501;52.282;10.560;2023-10-31T08:45:16;11.70;99.90
26947;DHT22;14501;52.282;10.560;2023-10-31T08:50:08;11.70;99.90
26947;DHT22;14501;52.282;10.560;2023-10-31T08:52:34;11.70;99.90
26947;DHT22;14501;52.282;10.560;2023-10-31T08:55:00;11.60;99.90
26947;DHT22;14501;52.282;10.560;2023-10-31T08:57:26;11.50;99.90
26947;DHT22;14501;52.282;10.560;2023-10-31T08:59:51;11.40;99.90
26947;DHT22;14501;52.282;10.560;2023-10-31T09:07:09;10.90;99.90
26947;DHT22;14501;52.282;10.560;2023-10-31T09:09:34;10.80;99.90
26947;DHT22;14501;52.282;10.560;2023-10-31T09:12:00;10.60;99.90
26947;DHT22;14501;52.282;10.560;2023-10-31T09:14:25;10.70;99.90
26947;DHT22;14501;52.282;10.560;2023-10-31T09:16:51;10.90;99.90
26947;DHT22;14501;52.282;10.560;2023-10-31T09:19:17;11.20;99.90
26947;DHT22;14501;52.282;10.560;2023-10-31T09:21:43;11.20;99.90
26947;DHT22;14501;52.282;10.560;2023-10-31T09:24:09;11.80;99.90
26947;DHT22;14501;52.282;10.560;2023-10-31T09:26:34;12.20;99.90
26947;DHT22;14501;52.282;10.560;2023-10-31T09:29:00;12.00;99.90
26947;DHT22;14501;52.282;10.560;2023-10-31T09:31:26;11.60;99.90
26947;DHT22;14501;52.282;10.560;2023-10-31T09:36:19;12.00;99.90
26947;DHT22;14501;52.282;10.560;2023-10-31T09:41:12;12.00;99.90
26947;DHT22;14501;52.282;10.560;2023-10-31T09:43:39;12.10;99.90
26947;DHT22;14501;52.282;10.560;2023-10-31T09:46:05;13.20;99.90
26947;DHT22;14501;52.282;10.560;2023-10-31T09:48:31;13.80;99.90
26947;DHT22;14501;52.282;10.560;2023-10-31T09:50:58;14.60;99.90
26947;DHT22;14501;52.282;10.560;2023-10-31T09:53:24;14.70;99.90
26947;DHT22;14501;52.282;10.560;2023-10-31T09:55:51;14.50;99.90
26947;DHT22;14501;52.282;10.560;2023-10-31T09:58:19;14.40;99.90
26947;DHT22;14501;52.282;10.560;2023-10-31T10:00:44;14.00;99.90
26947;DHT22;14501;52.282;10.560;2023-10-31T10:03:10;13.80;99.90
26947;DHT22;14501;52.282;10.560;2023-10-31T10:05:36;13.70;99.90
26947;DHT22;14501;52.282;10.560;2023-10-31T10:08:03;13.60;99.90
26947;DHT22;14501;52.282;10.560;2023-10-31T10:10:29;13.50;99.90
26947;DHT22;14501;52.282;10.560;2023-10-31T10:12:55;13.90;99.90
26947;DHT22;14501;52.282;10.560;2023-10-31T10:17:51;13.90;99.90
26947;DHT22;14501;52.282;10.560;2023-10-31T10:22:44;13.30;99.90
26947;DHT22;14501;52.282;10.560;2023-10-31T10:25:14;12.70;99.90
26947;DHT22;14501;52.282;10.560;2023-10-31T10:27:46;12.70;99.90
26947;DHT22;14501;52.282;10.560;2023-10-31T10:30:15;12.40;99.90
26947;DHT22;14501;52.282;10.560;2023-10-31T10:32:41;12.70;99.90
26947;DHT22;14501;52.282;10.560;2023-10-31T10:37:38;12.20;99.90
26947;DHT22;14501;52.282;10.560;2023-10-31T10:40:06;12.20;99.90
26947;DHT22;14501;52.282;10.560;2023-10-31T10:42:37;10.50;99.90
26947;DHT22;14501;52.282;10.560;2023-10-31T10:45:04;11.60;99.90
26947;DHT22;14501;52.282;10.560;2023-10-31T10:47:34;12.30;99.90
26947;DHT22;14501;52.282;10.560;2023-10-31T10:50:01;12.30;99.90
26947;DHT22;14501;52.282;10.560;2023-10-31T10:52:35;12.30;99.90
26947;DHT22;14501;52.282;10.560;2023-10-31T10:55:08;12.30;99.90
26947;DHT22;14501;52.282;10.560;2023-10-31T10:57:52;12.30;99.90
26947;DHT22;14501;52.282;10.560;2023-10-31T11:00:22;12.30;99.90
26947;DHT22;14501;52.282;10.560;2023-10-31T11:02:51;12.30;99.90
26947;DHT22;14501;52.282;10.560;2023-10-31T11:07:44;12.10;99.90
26947;DHT22;14501;52.282;10.560;2023-10-31T11:12:37;12.20;99.90
26947;DHT22;14501;52.282;10.560;2023-10-31T11:15:06;12.30;99.90
26947;DHT22;14501;52.282;10.560;2023-10-31T11:17:34;12.30;99.90
26947;DHT22;14501;52.282;10.560;2023-10-31T11:20:00;12.50;99.90
26947;DHT22;14501;52.282;10.560;2023-10-31T11:22:36;12.60;99.90
26947;DHT22;14501;52.282;10.560;2023-10-31T11:25:01;12.90;99.90
26947;DHT22;14501;52.282;10.560;2023-10-31T11:29:54;13.30;99.90
26947;DHT22;14501;52.282;10.560;2023-10-31T11:32:22;13.50;99.90
26947;DHT22;14501;52.282;10.560;2023-10-31T11:37:32;13.60;99.90
26947;DHT22;14501;52.282;10.560;2023-10-31T11:40:18;13.70;99.90
26947;DHT22;14501;52.282;10.560;2023-10-31T11:42:53;13.50;99.90
26947;DHT22;14501;52.282;10.560;2023-10-31T11:45:31;13.30;99.90
26947;DHT22;14501;52.282;10.560;2023-10-31T11:47:57;13.20;99.90
26947;DHT22;14501;52.282;10.560;2023-10-31T11:50:23;13.20;99.90
26947;DHT22;14501;52.282;10.560;2023-10-31T11:52:59;13.20;99.90
26947;DHT22;14501;52.282;10.560;2023-10-31T11:57:51;12.80;99.90
26947;DHT22;14501;52.282;10.560;2023-10-31T12:00:21;12.70;99.90
26947;DHT22;14501;52.282;10.560;2023-10-31T12:02:58;12.80;99.90
26947;DHT22;14501;52.282;10.560;2023-10-31T12:05:24;12.80;99.90
26947;DHT22;14501;52.282;10.560;2023-10-31T12:10:25;12.80;99.90
26947;DHT22;14501;52.282;10.560;2023-10-31T12:12:52;12.90;99.90
26947;DHT22;14501;52.282;10.560;2023-10-31T12:17:45;12.80;99.90
26947;DHT22;14501;52.282;10.560;2023-10-31T12:20:11;12.70;99.90
26947;DHT22;14501;52.282;10.560;2023-10-31T12:22:36;12.70;99.90
26947;DHT22;14501;52.282;10.560;2023-10-31T12:25:05;12.50;99.90
26947;DHT22;14501;52.282;10.560;2023-10-31T12:27:48;12.40;99.90
26947;DHT22;14501;52.282;10.560;2023-10-31T12:30:19;12.40;99.90
26947;DHT22;14501;52.282;10.560;2023-10-31T12:32:45;12.40;99.90
26947;DHT22;14501;52.282;10.560;2023-10-31T12:35:21;12.30;99.90
26947;DHT22;14501;52.282;10.560;2023-10-31T12:37:48;12.10;99.90
26947;DHT22;14501;52.282;10.560;2023-10-31T12:40:17;12.20;99.90
26947;DHT22;14501;52.282;10.560;2023-10-31T12:42:44;12.20;99.90
26947;DHT22;14501;52.282;10.560;2023-10-31T12:45:11;12.40;99.90
26947;DHT22;14501;52.282;10.560;2023-10-31T12:47:37;12.40;99.90
26947;DHT22;14501;52.282;10.560;2023-10-31T12:50:16;12.50;99.90
26947;DHT22;14501;52.282;10.560;2023-10-31T12:52:51;12.50;99.90
26947;DHT22;14501;52.282;10.560;2023-10-31T12:55:22;12.50;99.90
26947;DHT22;14501;52.282;10.560;2023-10-31T12:57:48;12.40;99.90
26947;DHT22;14501;52.282;10.560;2023-10-31T13:00:16;12.40;99.90
26947;DHT22;14501;52.282;10.560;2023-10-31T13:02:49;12.40;99.90
26947;DHT22;14501;52.282;10.560;2023-10-31T13:05:15;12.50;99.90
26947;DHT22;14501;52.282;10.560;2023-10-31T13:07:49;12.60;99.90
26947;DHT22;14501;52.282;10.560;2023-10-31T13:10:16;12.60;99.90
26947;DHT22;14501;52.282;10.560;2023-10-31T13:12:48;12.60;99.90
26947;DHT22;14501;52.282;10.560;2023-10-31T13:15:18;12.70;99.90
26947;DHT22;14501;52.282;10.560;2023-10-31T13:20:12;12.70;99.90
26947;DHT22;14501;52.282;10.560;2023-10-31T13:25:05;12.70;99.90
26947;DHT22;14501;52.282;10.560;2023-10-31T13:27:35;12.70;99.90
26947;DHT22;14501;52.282;10.560;2023-10-31T13:30:02;12.60;99.90
26947;DHT22;14501;52.282;10.560;2023-10-31T13:32:28;12.60;99.90
26947;DHT22;14501;52.282;10.560;2023-10-31T13:34:53;12.60;99.90
26947;DHT22;14501;52.282;10.560;2023-10-31T13:37:19;12.70;99.90
26947;DHT22;14501;52.282;10.560;2023-10-31T13:39:45;12.70;99.90
26947;DHT22;14501;52.282;10.560;2023-10-31T13:42:11;12.80;99.90
26947;DHT22;14501;52.282;10.560;2023-10-31T13:44:37;13.10;99.90
26947;DHT22;14501;52.282;10.560;2023-10-31T13:49:29;12.90;99.90
26947;DHT22;14501;52.282;10.560;2023-10-31T13:51:55;13.00;99.90
26947;DHT22;14501;52.282;10.560;2023-10-31T13:54:21;13.10;99.90
26947;DHT22;14501;52.282;10.560;2023-10-31T13:56:47;12.80;99.90
26947;DHT22;14501;52.282;10.560;2023-10-31T13:59:12;12.90;99.90
26947;DHT22;14501;52.282;10.560;2023-10-31T14:01:38;12.60;99.90
26947;DHT22;14501;52.282;10.560;2023-10-31T14:04:06;12.50;99.90
26947;DHT22;14501;52.282;10.560;2023-10-31T14:06:31;12.50;99.90
26947;DHT22;14501;52.282;10.560;2023-10-31T14:08:59;12.50;99.90
26947;DHT22;14501;52.282;10.560;2023-10-31T14:11:24;12.50;99.90
26947;DHT22;14501;52.282;10.560;2023-10-31T14:13:50;12.50;99.90
26947;DHT22;14501;52.282;10.560;2023-10-31T14:16:16;12.50;99.90
26947;DHT22;14501;52.282;10.560;2023-10-31T14:18:41;12.50;99.90
26947;DHT22;14501;52.282;10.560;2023-10-31T14:21:08;12.40;99.90
26947;DHT22;14501;52.282;10.560;2023-10-31T14:23:34;12.40;99.90
26947;DHT22;14501;52.282;10.560;2023-10-31T14:26:00;12.30;99.90
26947;DHT22;14501;52.282;10.560;2023-10-31T14:28:25;12.30;99.90
26947;DHT22;14501;52.282;10.560;2023-10-31T14:30:51;12.90;99.90
26947;DHT22;14501;52.282;10.560;2023-10-31T14:33:19;12.30;99.90
26947;DHT22;14501;52.282;10.560;2023-10-31T14:35:45;12.60;99.90
26947;DHT22;14501;52.282;10.560;2023-10-31T14:38:11;12.40;99.90
26947;DHT22;14501;52.282;10.560;2023-10-31T14:40:37;12.40;99.90
26947;DHT22;14501;52.282;10.560;2023-10-31T14:43:02;12.40;99.90
26947;DHT22;14501;52.282;10.560;2023-10-31T14:45:28;12.40;99.90
26947;DHT22;14501;52.282;10.560;2023-10-31T14:47:53;12.20;99.90
26947;DHT22;14501;52.282;10.560;2023-10-31T14:50:20;12.40;99.90
26947;DHT22;14501;52.282;10.560;2023-10-31T14:52:48;12.30;99.90
26947;DHT22;14501;52.282;10.560;2023-10-31T14:55:14;12.30;99.90
26947;DHT22;14501;52.282;10.560;2023-10-31T14:57:41;12.30;99.90
26947;DHT22;14501;52.282;10.560;2023-10-31T15:00:06;12.30;99.90
26947;DHT22;14501;52.282;10.560;2023-10-31T15:02:37;12.30;99.90
26947;DHT22;14501;52.282;10.560;2023-10-31T15:05:03;12.20;99.90
26947;DHT22;14501;52.282;10.560;2023-10-31T15:07:29;12.20;99.90
26947;DHT22;14501;52.282;10.560;2023-10-31T15:09:55;12.20;99.90
26947;DHT22;14501;52.282;10.560;2023-10-31T15:12:20;12.10;99.90
26947;DHT22;14501;52.282;10.560;2023-10-31T15:14:46;12.10;99.90
26947;DHT22;14501;52.282;10.560;2023-10-31T15:17:11;12.10;99.90
26947;DHT22;14501;52.282;10.560;2023-10-31T15:19:37;12.00;99.90
26947;DHT22;14501;52.282;10.560;2023-10-31T15:22:03;12.00;99.90
26947;DHT22;14501;52.282;10.560;2023-10-31T15:24:29;12.00;99.90
26947;DHT22;14501;52.282;10.560;2023-10-31T15:26:56;12.00;99.90
26947;DHT22;14501;52.282;10.560;2023-10-31T15:29:21;12.10;99.90
26947;DHT22;14501;52.282;10.560;2023-10-31T15:31:47;11.90;99.90
26947;DHT22;14501;52.282;10.560;2023-10-31T15:34:19;11.90;99.90
26947;DHT22;14501;52.282;10.560;2023-10-31T15:36:44;11.80;99.90
26947;DHT22;14501;52.282;10.560;2023-10-31T15:39:10;11.80;99.90
26947;DHT22;14501;52.282;10.560;2023-10-31T15:41:36;11.60;99.90
26947;DHT22;14501;52.282;10.560;2023-10-31T15:44:02;11.60;99.90
26947;DHT22;14501;52.282;10.560;2023-10-31T15:46:28;11.50;99.90
26947;DHT22;14501;52.282;10.560;2023-10-31T15:48:53;11.40;99.90
26947;DHT22;14501;52.282;10.560;2023-10-31T15:51:19;11.40;99.90
26947;DHT22;14501;52.282;10.560;2023-10-31T15:53:44;11.50;99.90
26947;DHT22;14501;52.282;10.560;2023-10-31T15:56:10;11.30;99.90
26947;DHT22;14501;52.282;10.560;2023-10-31T15:58:36;11.30;99.90
26947;DHT22;14501;52.282;10.560;2023-10-31T16:01:03;10.70;99.90
26947;DHT22;14501;52.282;10.560;2023-10-31T16:03:28;11.10;99.90